createdAt,value
2022-11-30T00:01:32.860Z,33.23
2022-11-30T00:04:01.518Z,32.67
2022-11-30T00:06:30.098Z,34.40
2022-11-30T00:08:59.590Z,32.67
2022-11-30T00:11:29.971Z,33.17
2022-11-30T00:13:58.640Z,33.93
2022-11-30T00:16:27.581Z,33.97
2022-11-30T00:18:56.282Z,32.80
2022-11-30T00:21:24.905Z,34.37
2022-11-30T00:23:53.539Z,34.30
2022-11-30T00:26:23.201Z,28.57
2022-11-30T00:28:53.253Z,35.93
2022-11-30T00:31:21.980Z,31.33
2022-11-30T00:33:50.630Z,33.00
2022-11-30T00:36:21.120Z,32.07
2022-11-30T00:38:50.860Z,28.63
2022-11-30T00:41:20.019Z,31.30
2022-11-30T00:43:49.073Z,29.57
2022-11-30T00:46:19.282Z,32.03
2022-11-30T00:48:47.959Z,32.97
2022-11-30T00:51:16.549Z,30.07
2022-11-30T00:53:47.448Z,33.87
2022-11-30T00:56:16.132Z,30.40
2022-11-30T00:58:45.023Z,32.27
2022-11-30T01:01:13.626Z,30.73
2022-11-30T01:03:43.774Z,26.93
2022-11-30T01:06:12.389Z,31.73
2022-11-30T01:08:40.974Z,32.27
2022-11-30T01:11:13.219Z,30.90
2022-11-30T01:13:41.831Z,27.80
2022-11-30T01:16:12.921Z,37.43
2022-11-30T01:18:43.075Z,31.80
2022-11-30T01:21:14.711Z,30.30
2022-11-30T01:23:43.725Z,36.30
2022-11-30T01:26:13.052Z,36.20
2022-11-30T01:28:43.935Z,34.57
2022-11-30T01:31:13.927Z,30.63
2022-11-30T01:33:44.094Z,39.77
2022-11-30T01:36:14.075Z,34.57
2022-11-30T01:38:45.013Z,36.43
2022-11-30T01:41:15.900Z,39.20
2022-11-30T01:43:45.847Z,31.40
2022-11-30T01:46:30.012Z,30.90
2022-11-30T01:49:04.660Z,44.20
2022-11-30T01:51:36.566Z,29.43
2022-11-30T01:54:07.442Z,31.00
2022-11-30T01:56:36.101Z,36.80
2022-11-30T01:59:04.686Z,27.13
2022-11-30T02:01:33.420Z,23.73
2022-11-30T02:04:07.673Z,30.00
2022-11-30T02:06:36.563Z,25.50
2022-11-30T02:09:05.257Z,25.83
2022-11-30T02:11:33.850Z,28.37
2022-11-30T02:14:15.931Z,27.00
2022-11-30T02:16:51.667Z,28.83
2022-11-30T02:19:56.196Z,28.00
2022-11-30T02:22:33.981Z,30.70
2022-11-30T02:25:09.710Z,31.87
2022-11-30T02:27:49.369Z,25.70
2022-11-30T02:30:20.868Z,27.17
2022-11-30T02:32:52.960Z,28.60
2022-11-30T02:35:24.366Z,29.17
2022-11-30T02:37:54.418Z,25.10
2022-11-30T02:40:23.266Z,24.90
2022-11-30T02:42:53.595Z,27.93
2022-11-30T02:45:30.759Z,26.27
2022-11-30T02:48:04.233Z,27.37
2022-11-30T02:50:38.227Z,27.40
2022-11-30T02:53:07.507Z,33.30
2022-11-30T02:55:36.306Z,31.17
2022-11-30T02:58:04.933Z,27.87
2022-11-30T03:00:34.874Z,29.83
2022-11-30T03:03:03.687Z,28.40
2022-11-30T03:05:32.869Z,25.97
2022-11-30T03:08:01.474Z,28.07
2022-11-30T03:10:30.165Z,25.93
2022-11-30T03:12:58.893Z,30.47
2022-11-30T03:15:27.954Z,25.47
2022-11-30T03:17:57.867Z,30.13
2022-11-30T03:20:26.740Z,32.53
2022-11-30T03:22:55.342Z,22.30
2022-11-30T03:25:23.943Z,25.93
2022-11-30T03:27:52.537Z,25.20
2022-11-30T03:30:21.312Z,28.10
2022-11-30T03:32:49.863Z,26.70
2022-11-30T03:35:19.840Z,28.27
2022-11-30T03:37:48.567Z,24.00
2022-11-30T03:40:17.243Z,37.60
2022-11-30T03:42:45.823Z,27.70
2022-11-30T03:45:14.365Z,25.40
2022-11-30T03:47:42.923Z,23.03
2022-11-30T03:50:12.092Z,25.47
2022-11-30T03:52:42.043Z,21.27
2022-11-30T03:55:11.035Z,24.60
2022-11-30T03:57:39.622Z,30.37
2022-11-30T04:00:09.467Z,29.63
2022-11-30T04:02:44.267Z,23.90
2022-11-30T04:05:13.537Z,28.23
2022-11-30T04:07:43.547Z,35.70
2022-11-30T04:10:12.997Z,27.93
2022-11-30T04:12:41.605Z,25.70
2022-11-30T04:15:11.150Z,22.00
2022-11-30T04:17:39.767Z,24.23
2022-11-30T04:20:09.168Z,23.93
2022-11-30T04:22:37.790Z,23.33
2022-11-30T04:25:08.784Z,24.13
2022-11-30T04:27:37.342Z,21.63
2022-11-30T04:30:07.371Z,25.03
2022-11-30T04:32:35.972Z,24.53
2022-11-30T04:35:04.936Z,23.43
2022-11-30T04:37:33.572Z,25.60
2022-11-30T04:40:02.207Z,25.77
2022-11-30T04:42:32.126Z,25.80
2022-11-30T04:45:00.762Z,22.47
2022-11-30T04:47:29.418Z,26.90
2022-11-30T04:49:58.050Z,22.77
2022-11-30T04:52:26.670Z,18.80
2022-11-30T04:54:56.860Z,23.30
2022-11-30T04:57:25.507Z,23.50
2022-11-30T04:59:55.431Z,22.90
2022-11-30T05:02:24.049Z,20.43
2022-11-30T05:04:52.686Z,21.00
2022-11-30T05:07:21.309Z,20.53
2022-11-30T05:09:49.944Z,20.90
2022-11-30T05:12:18.563Z,25.47
2022-11-30T05:14:47.466Z,24.10
2022-11-30T05:17:17.843Z,26.80
2022-11-30T05:19:46.435Z,23.60
2022-11-30T05:22:15.046Z,23.67
2022-11-30T05:24:43.664Z,21.17
2022-11-30T05:27:16.658Z,25.07
2022-11-30T05:29:48.064Z,24.33
2022-11-30T05:32:18.011Z,27.97
2022-11-30T05:34:51.401Z,23.30
2022-11-30T05:37:20.664Z,22.63
2022-11-30T05:39:49.269Z,24.30
2022-11-30T05:42:17.931Z,23.20
2022-11-30T05:44:47.811Z,25.03
2022-11-30T05:47:18.318Z,21.63
2022-11-30T05:49:46.955Z,23.33
2022-11-30T05:52:15.561Z,25.20
2022-11-30T05:54:44.160Z,23.50
2022-11-30T05:57:12.739Z,23.50
2022-11-30T05:59:41.511Z,24.27
2022-11-30T06:02:10.180Z,22.53
2022-11-30T06:04:40.204Z,24.17
2022-11-30T06:07:11.805Z,22.10
2022-11-30T06:09:40.440Z,25.90
2022-11-30T06:12:09.426Z,25.80
2022-11-30T06:14:38.019Z,24.93
2022-11-30T06:17:06.579Z,21.00
2022-11-30T06:19:35.215Z,24.30
2022-11-30T06:22:05.233Z,24.77
2022-11-30T06:24:33.865Z,22.83
2022-11-30T06:27:02.471Z,22.73
2022-11-30T06:29:31.076Z,23.20
2022-11-30T06:31:59.712Z,25.37
2022-11-30T06:34:28.359Z,21.20
2022-11-30T06:36:58.352Z,20.47
2022-11-30T06:39:57.867Z,19.60
2022-11-30T06:42:16.860Z,23.87
2022-11-30T06:44:45.988Z,25.03
2022-11-30T06:47:14.795Z,24.50
2022-11-30T06:49:43.439Z,24.27
2022-11-30T06:52:12.010Z,25.63
2022-11-30T06:54:41.990Z,32.97
2022-11-30T06:57:10.823Z,22.93
2022-11-30T06:59:42.291Z,20.43
2022-11-30T07:02:17.549Z,22.63
2022-11-30T07:04:47.491Z,19.90
2022-11-30T07:07:16.593Z,23.50
2022-11-30T07:09:46.631Z,22.53
2022-11-30T07:12:15.240Z,23.83
2022-11-30T07:14:43.882Z,25.23
2022-11-30T07:17:12.495Z,22.73
2022-11-30T07:19:41.146Z,22.40
2022-11-30T07:22:13.365Z,24.50
2022-11-30T07:25:00.108Z,23.80
2022-11-30T07:27:30.072Z,27.70
2022-11-30T07:29:58.723Z,26.10
2022-11-30T07:32:27.298Z,25.90
2022-11-30T07:34:55.903Z,25.33
2022-11-30T07:37:24.557Z,25.80
2022-11-30T07:39:53.173Z,26.33
2022-11-30T07:42:22.843Z,23.17
2022-11-30T07:44:58.416Z,23.33
2022-11-30T07:47:27.675Z,25.47
2022-11-30T07:49:56.308Z,25.70
2022-11-30T07:52:24.922Z,24.57
2022-11-30T07:54:53.599Z,24.20
2022-11-30T07:57:22.194Z,23.63
2022-11-30T07:59:52.181Z,26.40
2022-11-30T08:02:20.909Z,26.70
2022-11-30T08:04:50.995Z,27.60
2022-11-30T08:07:19.878Z,26.90
2022-11-30T08:09:49.094Z,29.50
2022-11-30T08:12:17.711Z,27.43
2022-11-30T08:15:18.193Z,29.10
2022-11-30T08:17:36.219Z,29.93
2022-11-30T08:20:05.885Z,27.63
2022-11-30T08:22:34.906Z,31.27
2022-11-30T08:25:03.570Z,35.20
2022-11-30T08:27:32.259Z,36.60
2022-11-30T08:30:00.815Z,33.63
2022-11-30T08:32:29.391Z,31.50
2022-11-30T08:34:59.353Z,30.53
2022-11-30T08:37:27.991Z,28.30
2022-11-30T08:39:56.639Z,31.30
2022-11-30T08:42:25.326Z,33.97
2022-11-30T08:44:53.930Z,32.00
2022-11-30T08:47:22.550Z,28.93
2022-11-30T08:49:51.198Z,29.40
2022-11-30T08:52:21.154Z,38.43
2022-11-30T08:54:50.511Z,32.10
2022-11-30T08:57:20.976Z,31.90
2022-11-30T08:59:49.833Z,30.40
2022-11-30T09:02:20.067Z,36.07
2022-11-30T09:04:51.139Z,29.03
2022-11-30T09:07:21.332Z,28.20
2022-11-30T09:09:50.041Z,29.50
2022-11-30T09:12:18.619Z,27.10
2022-11-30T09:14:54.018Z,28.37
2022-11-30T09:17:26.373Z,30.50
2022-11-30T09:19:55.984Z,24.83
2022-11-30T09:22:26.525Z,29.30
2022-11-30T09:24:55.303Z,25.13
2022-11-30T09:27:24.796Z,25.77
2022-11-30T09:29:53.461Z,26.57
2022-11-30T09:32:22.106Z,26.07
2022-11-30T09:34:51.094Z,25.83
2022-11-30T09:37:19.983Z,25.83
2022-11-30T09:39:50.008Z,23.20
2022-11-30T09:42:38.914Z,26.50
2022-11-30T09:45:10.472Z,24.73
2022-11-30T09:48:04.185Z,31.13
2022-11-30T09:50:35.386Z,24.20
2022-11-30T09:53:07.007Z,26.30
2022-11-30T09:55:40.227Z,25.43
2022-11-30T09:58:15.530Z,24.50
2022-11-30T10:00:44.847Z,20.47
2022-11-30T10:03:14.416Z,21.30
2022-11-30T10:05:48.033Z,22.43
2022-11-30T10:08:27.224Z,21.87
2022-11-30T10:11:11.436Z,19.37
2022-11-30T10:13:52.610Z,23.10
2022-11-30T10:16:29.262Z,21.13
2022-11-30T10:19:02.291Z,16.97
2022-11-30T10:21:43.896Z,20.37
2022-11-30T10:24:22.329Z,23.60
2022-11-30T10:26:55.077Z,21.00
2022-11-30T10:29:28.456Z,25.23
2022-11-30T10:31:59.838Z,23.37
2022-11-30T10:34:33.570Z,25.13
2022-11-30T10:37:05.412Z,19.37
2022-11-30T10:39:36.585Z,16.57
2022-11-30T10:42:11.673Z,16.83
2022-11-30T10:44:42.079Z,21.43
2022-11-30T10:47:14.542Z,18.23
2022-11-30T10:49:47.122Z,18.93
2022-11-30T10:52:18.165Z,19.40
2022-11-30T10:54:47.072Z,19.43
2022-11-30T10:57:17.388Z,15.90
2022-11-30T10:59:49.061Z,16.73
2022-11-30T11:02:39.660Z,13.03
2022-11-30T11:05:23.364Z,17.30
2022-11-30T11:07:59.814Z,16.73
2022-11-30T11:10:36.386Z,11.53
2022-11-30T11:13:06.559Z,11.47
2022-11-30T11:15:36.345Z,11.50
2022-11-30T11:18:29.556Z,13.20
2022-11-30T11:21:06.291Z,10.20
2022-11-30T11:23:37.946Z,10.20
2022-11-30T11:26:07.332Z,12.27
2022-11-30T11:28:37.974Z,9.70
2022-11-30T11:31:18.789Z,11.00
2022-11-30T11:33:52.481Z,11.17
2022-11-30T11:36:26.991Z,10.63
2022-11-30T11:38:55.735Z,9.07
2022-11-30T11:41:27.893Z,11.13
2022-11-30T11:44:03.836Z,11.80
2022-11-30T11:46:33.336Z,12.83
2022-11-30T11:49:03.806Z,9.07
2022-11-30T11:51:35.193Z,10.07
2022-11-30T11:54:11.720Z,12.13
2022-11-30T11:56:40.322Z,9.20
2022-11-30T11:59:16.790Z,10.97
2022-11-30T12:01:53.701Z,9.83
2022-11-30T12:04:46.645Z,12.40
2022-11-30T12:07:23.679Z,18.17
2022-11-30T12:10:16.680Z,12.33
2022-11-30T12:12:55.400Z,11.00
2022-11-30T12:15:32.528Z,11.97
2022-11-30T12:18:09.004Z,10.97
2022-11-30T12:20:51.030Z,9.47
2022-11-30T12:23:31.657Z,12.70
2022-11-30T12:26:08.599Z,10.63
2022-11-30T12:28:41.937Z,11.00
2022-11-30T12:31:17.117Z,12.70
2022-11-30T12:33:57.725Z,11.80
2022-11-30T12:36:34.107Z,12.53
2022-11-30T12:39:09.460Z,12.70
2022-11-30T12:41:42.860Z,14.50
2022-11-30T12:44:36.945Z,13.70
2022-11-30T12:47:25.643Z,13.20
2022-11-30T12:50:08.357Z,17.37
2022-11-30T12:52:43.982Z,18.17
2022-11-30T12:55:21.899Z,19.27
2022-11-30T12:57:55.015Z,14.53
2022-11-30T13:00:26.613Z,16.33
2022-11-30T13:03:14.365Z,17.77
2022-11-30T13:05:45.412Z,16.43
2022-11-30T13:08:21.089Z,16.10
2022-11-30T13:10:52.900Z,15.67
2022-11-30T13:13:25.591Z,13.30
2022-11-30T13:15:54.722Z,14.17
2022-11-30T13:18:25.193Z,15.50
2022-11-30T13:20:57.950Z,18.93
2022-11-30T13:23:35.857Z,16.47
2022-11-30T13:26:22.519Z,16.97
2022-11-30T13:29:02.097Z,18.70
2022-11-30T13:31:33.975Z,14.93
2022-11-30T13:34:04.019Z,16.87
2022-11-30T13:36:35.953Z,15.93
2022-11-30T13:39:23.261Z,14.60
2022-11-30T13:42:10.521Z,15.70
2022-11-30T13:44:40.047Z,20.20
2022-11-30T13:47:18.114Z,16.50
2022-11-30T13:49:48.307Z,15.50
2022-11-30T13:52:24.637Z,15.30
2022-11-30T13:54:55.603Z,16.37
2022-11-30T13:58:01.923Z,17.60
2022-11-30T14:00:49.339Z,17.23
2022-11-30T14:03:26.326Z,18.50
2022-11-30T14:05:57.309Z,18.90
2022-11-30T14:08:40.835Z,18.63
2022-11-30T14:11:41.149Z,18.23
2022-11-30T14:14:45.118Z,13.80
2022-11-30T14:17:17.763Z,17.83
2022-11-30T14:19:47.504Z,17.00
2022-11-30T14:22:17.843Z,19.50
2022-11-30T14:24:47.767Z,14.17
2022-11-30T14:27:19.445Z,15.40
2022-11-30T14:29:53.180Z,14.47
2022-11-30T14:32:35.096Z,19.20
2022-11-30T14:35:09.003Z,18.70
2022-11-30T14:37:44.495Z,16.70
2022-11-30T14:40:18.984Z,15.87
2022-11-30T14:42:50.372Z,14.23
2022-11-30T14:45:24.773Z,15.73
2022-11-30T14:47:54.752Z,13.20
2022-11-30T14:50:26.356Z,14.67
2022-11-30T14:53:04.455Z,12.53
2022-11-30T14:55:37.474Z,14.27
2022-11-30T14:58:15.012Z,15.83
2022-11-30T15:00:44.805Z,15.83
2022-11-30T15:03:22.896Z,14.60
2022-11-30T15:05:52.890Z,12.40
2022-11-30T15:08:23.313Z,11.83
2022-11-30T15:10:52.358Z,12.47
2022-11-30T15:13:21.421Z,12.40
2022-11-30T15:15:55.161Z,15.63
2022-11-30T15:18:24.624Z,13.70
2022-11-30T15:20:57.271Z,17.40
2022-11-30T15:23:28.159Z,14.83
2022-11-30T15:25:58.890Z,15.70
2022-11-30T15:28:31.753Z,15.53
2022-11-30T15:31:02.279Z,16.87
2022-11-30T15:33:33.205Z,21.73
2022-11-30T15:36:32.293Z,17.23
2022-11-30T15:38:54.136Z,21.10
2022-11-30T15:41:24.423Z,22.93
2022-11-30T15:43:55.507Z,16.17
2022-11-30T15:46:32.670Z,17.17
2022-11-30T15:49:14.084Z,15.50
2022-11-30T15:51:44.376Z,15.20
2022-11-30T15:54:15.376Z,15.30
2022-11-30T15:56:56.410Z,14.93
2022-11-30T15:59:26.310Z,14.00
2022-11-30T16:02:02.022Z,12.23
2022-11-30T16:05:20.774Z,12.67
2022-11-30T16:07:51.417Z,14.80
2022-11-30T16:10:23.501Z,15.60
2022-11-30T16:12:53.221Z,15.80
2022-11-30T16:15:24.319Z,13.33
2022-11-30T16:17:54.360Z,15.30
2022-11-30T16:20:24.019Z,15.10
2022-11-30T16:22:52.697Z,13.30
2022-11-30T16:25:25.805Z,14.07
2022-11-30T16:27:54.458Z,13.13
2022-11-30T16:30:24.211Z,10.90
2022-11-30T16:32:52.892Z,11.70
2022-11-30T16:35:23.935Z,11.50
2022-11-30T16:37:52.907Z,13.37
2022-11-30T16:40:22.868Z,13.80
2022-11-30T16:42:52.184Z,11.83
2022-11-30T16:45:22.862Z,15.97
2022-11-30T16:47:52.291Z,19.93
2022-11-30T16:50:21.152Z,15.17
2022-11-30T16:52:49.813Z,14.63
2022-11-30T16:55:19.895Z,13.27
2022-11-30T16:57:50.549Z,16.13
2022-11-30T17:00:20.649Z,12.77
2022-11-30T17:02:54.123Z,14.57
2022-11-30T17:05:22.759Z,12.73
2022-11-30T17:07:51.550Z,13.80
2022-11-30T17:10:20.369Z,16.60
2022-11-30T17:12:50.983Z,19.90
2022-11-30T17:15:23.286Z,18.80
2022-11-30T17:17:51.975Z,16.47
2022-11-30T17:20:20.610Z,15.60
2022-11-30T17:22:49.211Z,13.93
2022-11-30T17:25:20.337Z,18.47
2022-11-30T17:27:51.030Z,15.93
2022-11-30T17:30:22.019Z,12.97
2022-11-30T17:32:51.527Z,14.43
2022-11-30T17:35:20.308Z,13.83
2022-11-30T17:37:48.980Z,11.37
2022-11-30T17:40:17.674Z,12.80
2022-11-30T17:42:46.293Z,12.07
2022-11-30T17:45:16.378Z,10.43
2022-11-30T17:47:45.019Z,10.10
2022-11-30T17:50:14.609Z,42.27
2022-11-30T17:52:43.266Z,10.83
2022-11-30T17:55:11.890Z,10.73
2022-11-30T17:57:40.524Z,9.37
2022-11-30T18:00:10.005Z,8.63
2022-11-30T18:02:40.050Z,8.00
2022-11-30T18:05:09.511Z,10.07
2022-11-30T18:07:38.172Z,11.87
2022-11-30T18:10:08.111Z,8.47
2022-11-30T18:12:36.937Z,8.07
2022-11-30T18:15:06.332Z,10.23
2022-11-30T18:17:35.383Z,7.43
2022-11-30T18:20:06.530Z,10.47
2022-11-30T18:22:35.251Z,8.93
2022-11-30T18:25:03.916Z,6.80
2022-11-30T18:27:32.518Z,9.93
2022-11-30T18:30:03.723Z,9.17
2022-11-30T18:32:34.781Z,11.93
2022-11-30T18:35:04.864Z,11.20
2022-11-30T18:37:33.789Z,9.10
2022-11-30T18:40:02.491Z,8.17
2022-11-30T18:42:31.467Z,10.70
2022-11-30T18:45:00.071Z,10.30
2022-11-30T18:47:28.728Z,18.07
2022-11-30T18:49:57.340Z,9.57
2022-11-30T18:52:28.193Z,10.77
2022-11-30T18:54:56.813Z,11.40
2022-11-30T18:57:25.567Z,10.37
2022-11-30T18:59:54.225Z,11.47
2022-11-30T19:02:22.995Z,9.87
2022-11-30T19:04:51.668Z,13.67
2022-11-30T19:07:20.380Z,8.60
2022-11-30T19:09:50.413Z,10.33
2022-11-30T19:12:19.075Z,10.23
2022-11-30T19:14:49.247Z,10.67
2022-11-30T19:17:18.284Z,10.00
2022-11-30T19:19:47.219Z,8.80
2022-11-30T19:22:15.822Z,8.80
2022-11-30T19:24:44.457Z,9.60
2022-11-30T19:27:14.412Z,9.50
2022-11-30T19:29:43.046Z,11.30
2022-11-30T19:32:11.664Z,12.70
2022-11-30T19:34:40.315Z,11.70
2022-11-30T19:37:09.006Z,13.87
2022-11-30T19:39:37.638Z,11.33
2022-11-30T19:42:07.122Z,11.80
2022-11-30T19:44:37.203Z,12.77
2022-11-30T19:47:05.971Z,11.70
2022-11-30T19:49:34.607Z,8.83
2022-11-30T19:52:03.299Z,11.13
2022-11-30T19:54:31.886Z,9.50
2022-11-30T19:57:00.525Z,10.83
2022-11-30T19:59:29.161Z,9.90
2022-11-30T20:01:59.256Z,11.57
2022-11-30T20:04:27.924Z,12.67
2022-11-30T20:06:56.636Z,11.00
2022-11-30T20:09:25.294Z,12.63
2022-11-30T20:11:54.371Z,10.33
2022-11-30T20:14:23.361Z,12.37
2022-11-30T20:16:52.809Z,14.40
2022-11-30T20:19:22.916Z,10.57
2022-11-30T20:21:51.733Z,11.47
2022-11-30T20:24:20.382Z,11.07
2022-11-30T20:26:49.028Z,11.93
2022-11-30T20:29:18.707Z,13.50
2022-11-30T20:31:50.581Z,9.57
2022-11-30T20:34:19.205Z,10.57
2022-11-30T20:36:49.394Z,10.70
2022-11-30T20:39:18.164Z,9.90
2022-11-30T20:41:46.839Z,13.30
2022-11-30T20:44:15.968Z,13.80
2022-11-30T20:46:44.781Z,12.10
2022-11-30T20:49:17.355Z,11.33
2022-11-30T20:51:46.827Z,10.73
2022-11-30T20:54:17.264Z,12.87
2022-11-30T20:56:50.093Z,9.50
2022-11-30T20:59:23.429Z,11.60
2022-11-30T21:01:52.176Z,11.30
2022-11-30T21:04:20.898Z,11.27
2022-11-30T21:06:49.535Z,11.30
2022-11-30T21:09:20.308Z,12.30
2022-11-30T21:11:49.731Z,11.77
2022-11-30T21:14:18.714Z,13.93
2022-11-30T21:16:47.372Z,11.50
2022-11-30T21:19:16.147Z,13.40
2022-11-30T21:21:45.320Z,12.07
2022-11-30T21:24:14.107Z,13.13
2022-11-30T21:26:44.456Z,12.10
2022-11-30T21:29:14.694Z,15.03
2022-11-30T21:31:43.793Z,12.13
2022-11-30T21:34:12.621Z,11.80
2022-11-30T21:36:41.458Z,13.40
2022-11-30T21:39:10.714Z,15.70
2022-11-30T21:41:40.822Z,11.83
2022-11-30T21:44:12.395Z,13.03
2022-11-30T21:46:41.018Z,15.03
2022-11-30T21:49:10.539Z,13.03
2022-11-30T21:51:39.539Z,12.70
2022-11-30T21:54:11.343Z,15.47
2022-11-30T21:56:41.185Z,14.97
2022-11-30T21:59:14.151Z,14.80
2022-11-30T22:01:44.297Z,13.70
2022-11-30T22:04:14.583Z,11.37
2022-11-30T22:06:43.726Z,14.80
2022-11-30T22:09:14.208Z,17.47
2022-11-30T22:11:45.001Z,14.00
2022-11-30T22:14:16.878Z,16.87
2022-11-30T22:16:45.698Z,17.20
2022-11-30T22:19:14.777Z,17.73
2022-11-30T22:21:49.439Z,14.93
2022-11-30T22:24:19.110Z,15.13
2022-11-30T22:26:48.917Z,16.33
2022-11-30T22:29:20.703Z,16.23
2022-11-30T22:31:50.469Z,14.73
2022-11-30T22:34:19.384Z,17.00
2022-11-30T22:36:48.434Z,14.13
2022-11-30T22:39:18.808Z,15.70
2022-11-30T22:41:54.777Z,16.50
2022-11-30T22:44:26.730Z,16.03
2022-11-30T22:46:55.540Z,16.47
2022-11-30T22:49:24.530Z,15.23
2022-11-30T22:51:53.302Z,15.87
2022-11-30T22:54:22.030Z,15.73
2022-11-30T22:56:50.705Z,20.83
2022-11-30T22:59:19.362Z,18.00
2022-11-30T23:01:50.260Z,19.50
2022-11-30T23:04:20.730Z,14.80
2022-11-30T23:06:50.231Z,18.30
2022-11-30T23:09:20.510Z,18.23
2022-11-30T23:11:49.858Z,22.20
2022-11-30T23:14:18.884Z,16.40
2022-11-30T23:16:49.179Z,17.60
2022-11-30T23:19:18.135Z,17.43
2022-11-30T23:21:46.868Z,15.37
2022-11-30T23:24:17.407Z,17.23
2022-11-30T23:26:46.145Z,17.67
2022-11-30T23:29:15.900Z,17.40
2022-11-30T23:31:46.009Z,18.60
2022-11-30T23:34:17.468Z,16.70
2022-11-30T23:36:46.132Z,17.50
2022-11-30T23:39:16.385Z,20.20
2022-11-30T23:41:44.940Z,21.80
2022-11-30T23:44:13.804Z,20.10
2022-11-30T23:46:42.518Z,19.90
2022-11-30T23:49:13.319Z,18.53
2022-11-30T23:51:43.824Z,20.50
2022-11-30T23:54:12.660Z,19.03
2022-11-30T23:56:41.315Z,20.30
2022-11-30T23:59:09.938Z,18.53
